sensor_id;sensor_type;location;lat;lon;timestamp;P1;durP1;ratioP1;P2;durP2;ratioP2
3561;SDS011;1795;52.074;4.754;2022-11-02T00:01:07;5.70;;;2.55;;
3561;SDS011;1795;52.074;4.754;2022-11-02T00:03:44;8.60;;;2.30;;
3561;SDS011;1795;52.074;4.754;2022-11-02T00:06:12;5.10;;;2.10;;
3561;SDS011;1795;52.074;4.754;2022-11-02T00:08:40;9.25;;;2.63;;
3561;SDS011;1795;52.074;4.754;2022-11-02T00:11:09;7.97;;;2.10;;
3561;SDS011;1795;52.074;4.754;2022-11-02T00:13:37;8.65;;;2.60;;
3561;SDS011;1795;52.074;4.754;2022-11-02T00:16:06;6.32;;;1.98;;
3561;SDS011;1795;52.074;4.754;2022-11-02T00:18:36;8.10;;;2.50;;
3561;SDS011;1795;52.074;4.754;2022-11-02T00:21:04;5.57;;;2.67;;
3561;SDS011;1795;52.074;4.754;2022-11-02T00:23:32;7.10;;;2.30;;
3561;SDS011;1795;52.074;4.754;2022-11-02T00:26:00;9.73;;;2.27;;
3561;SDS011;1795;52.074;4.754;2022-11-02T00:28:30;10.95;;;2.45;;
3561;SDS011;1795;52.074;4.754;2022-11-02T00:30:58;10.88;;;2.42;;
3561;SDS011;1795;52.074;4.754;2022-11-02T00:33:26;14.10;;;2.00;;
3561;SDS011;1795;52.074;4.754;2022-11-02T00:35:54;8.67;;;2.20;;
3561;SDS011;1795;52.074;4.754;2022-11-02T00:38:22;5.50;;;1.70;;
3561;SDS011;1795;52.074;4.754;2022-11-02T00:40:50;4.78;;;1.20;;
3561;SDS011;1795;52.074;4.754;2022-11-02T00:43:18;9.05;;;1.48;;
3561;SDS011;1795;52.074;4.754;2022-11-02T00:45:47;5.50;;;1.10;;
3561;SDS011;1795;52.074;4.754;2022-11-02T00:48:15;4.70;;;1.00;;
3561;SDS011;1795;52.074;4.754;2022-11-02T00:50:43;3.20;;;0.95;;
3561;SDS011;1795;52.074;4.754;2022-11-02T00:53:11;2.63;;;1.10;;
3561;SDS011;1795;52.074;4.754;2022-11-02T00:55:39;4.90;;;1.10;;
3561;SDS011;1795;52.074;4.754;2022-11-02T00:58:07;2.50;;;1.13;;
3561;SDS011;1795;52.074;4.754;2022-11-02T01:00:34;2.72;;;0.90;;
3561;SDS011;1795;52.074;4.754;2022-11-02T01:03:04;1.90;;;0.70;;
3561;SDS011;1795;52.074;4.754;2022-11-02T01:05:32;3.70;;;1.00;;
3561;SDS011;1795;52.074;4.754;2022-11-02T01:08:00;3.35;;;0.90;;
3561;SDS011;1795;52.074;4.754;2022-11-02T01:10:28;3.40;;;0.80;;
3561;SDS011;1795;52.074;4.754;2022-11-02T01:12:56;2.22;;;0.70;;
3561;SDS011;1795;52.074;4.754;2022-11-02T01:15:24;3.90;;;1.20;;
3561;SDS011;1795;52.074;4.754;2022-11-02T01:17:52;4.82;;;1.00;;
3561;SDS011;1795;52.074;4.754;2022-11-02T01:20:21;3.30;;;1.00;;
3561;SDS011;1795;52.074;4.754;2022-11-02T01:22:50;6.47;;;1.38;;
3561;SDS011;1795;52.074;4.754;2022-11-02T01:25:17;5.10;;;1.10;;
3561;SDS011;1795;52.074;4.754;2022-11-02T01:27:45;5.72;;;1.30;;
3561;SDS011;1795;52.074;4.754;2022-11-02T01:30:13;9.77;;;1.80;;
3561;SDS011;1795;52.074;4.754;2022-11-02T01:32:41;6.55;;;1.40;;
3561;SDS011;1795;52.074;4.754;2022-11-02T01:35:09;4.32;;;1.08;;
3561;SDS011;1795;52.074;4.754;2022-11-02T01:37:38;5.28;;;1.10;;
3561;SDS011;1795;52.074;4.754;2022-11-02T01:40:07;7.50;;;1.20;;
3561;SDS011;1795;52.074;4.754;2022-11-02T01:42:35;8.40;;;1.50;;
3561;SDS011;1795;52.074;4.754;2022-11-02T01:45:03;4.15;;;1.30;;
3561;SDS011;1795;52.074;4.754;2022-11-02T01:47:34;8.98;;;1.55;;
3561;SDS011;1795;52.074;4.754;2022-11-02T01:50:05;6.03;;;1.30;;
3561;SDS011;1795;52.074;4.754;2022-11-02T01:52:35;6.32;;;1.40;;
3561;SDS011;1795;52.074;4.754;2022-11-02T01:55:08;9.80;;;1.80;;
3561;SDS011;1795;52.074;4.754;2022-11-02T01:57:40;5.55;;;1.27;;
3561;SDS011;1795;52.074;4.754;2022-11-02T02:00:12;5.95;;;1.63;;
3561;SDS011;1795;52.074;4.754;2022-11-02T02:02:42;7.47;;;1.65;;
3561;SDS011;1795;52.074;4.754;2022-11-02T02:05:14;7.57;;;1.50;;
3561;SDS011;1795;52.074;4.754;2022-11-02T02:07:43;9.63;;;1.60;;
3561;SDS011;1795;52.074;4.754;2022-11-02T02:10:13;7.40;;;1.50;;
3561;SDS011;1795;52.074;4.754;2022-11-02T02:12:41;5.30;;;1.70;;
3561;SDS011;1795;52.074;4.754;2022-11-02T02:15:10;7.07;;;2.08;;
3561;SDS011;1795;52.074;4.754;2022-11-02T02:17:41;9.20;;;2.08;;
3561;SDS011;1795;52.074;4.754;2022-11-02T02:20:16;9.93;;;1.67;;
3561;SDS011;1795;52.074;4.754;2022-11-02T02:29:07;5.40;;;1.90;;
3561;SDS011;1795;52.074;4.754;2022-11-02T02:31:43;8.05;;;1.73;;
3561;SDS011;1795;52.074;4.754;2022-11-02T02:34:16;8.88;;;1.85;;
3561;SDS011;1795;52.074;4.754;2022-11-02T02:36:48;5.40;;;1.50;;
3561;SDS011;1795;52.074;4.754;2022-11-02T02:39:19;3.60;;;1.50;;
3561;SDS011;1795;52.074;4.754;2022-11-02T02:41:53;5.53;;;1.40;;
3561;SDS011;1795;52.074;4.754;2022-11-02T02:44:27;9.35;;;1.77;;
3561;SDS011;1795;52.074;4.754;2022-11-02T02:47:01;7.67;;;2.00;;
3561;SDS011;1795;52.074;4.754;2022-11-02T02:49:33;8.15;;;1.70;;
3561;SDS011;1795;52.074;4.754;2022-11-02T02:52:04;7.68;;;1.70;;
3561;SDS011;1795;52.074;4.754;2022-11-02T02:54:34;11.77;;;1.95;;
3561;SDS011;1795;52.074;4.754;2022-11-02T02:57:05;7.30;;;1.58;;
3561;SDS011;1795;52.074;4.754;2022-11-02T02:59:40;8.30;;;2.03;;
3561;SDS011;1795;52.074;4.754;2022-11-02T03:02:11;7.82;;;2.15;;
3561;SDS011;1795;52.074;4.754;2022-11-02T03:04:42;8.73;;;2.30;;
3561;SDS011;1795;52.074;4.754;2022-11-02T03:07:10;8.13;;;2.10;;
3561;SDS011;1795;52.074;4.754;2022-11-02T03:09:41;8.43;;;1.80;;
3561;SDS011;1795;52.074;4.754;2022-11-02T03:12:18;13.20;;;2.00;;
3561;SDS011;1795;52.074;4.754;2022-11-02T03:14:58;8.07;;;1.70;;
3561;SDS011;1795;52.074;4.754;2022-11-02T03:17:38;14.95;;;2.88;;
3561;SDS011;1795;52.074;4.754;2022-11-02T03:20:15;5.43;;;2.25;;
3561;SDS011;1795;52.074;4.754;2022-11-02T03:22:51;13.88;;;2.80;;
3561;SDS011;1795;52.074;4.754;2022-11-02T03:25:28;12.27;;;2.60;;
3561;SDS011;1795;52.074;4.754;2022-11-02T03:28:07;8.30;;;2.25;;
3561;SDS011;1795;52.074;4.754;2022-11-02T03:30:41;8.55;;;2.80;;
3561;SDS011;1795;52.074;4.754;2022-11-02T03:33:15;11.65;;;2.00;;
3561;SDS011;1795;52.074;4.754;2022-11-02T03:35:46;11.50;;;2.72;;
3561;SDS011;1795;52.074;4.754;2022-11-02T03:38:21;14.00;;;2.40;;
3561;SDS011;1795;52.074;4.754;2022-11-02T03:40:52;11.15;;;2.97;;
3561;SDS011;1795;52.074;4.754;2022-11-02T03:43:23;9.70;;;2.28;;
3561;SDS011;1795;52.074;4.754;2022-11-02T03:45:53;16.58;;;2.90;;
3561;SDS011;1795;52.074;4.754;2022-11-02T03:48:24;9.88;;;2.67;;
3561;SDS011;1795;52.074;4.754;2022-11-02T03:50:56;17.30;;;2.63;;
3561;SDS011;1795;52.074;4.754;2022-11-02T03:53:27;13.90;;;2.65;;
3561;SDS011;1795;52.074;4.754;2022-11-02T03:56:01;10.93;;;2.80;;
3561;SDS011;1795;52.074;4.754;2022-11-02T03:58:34;14.57;;;2.83;;
3561;SDS011;1795;52.074;4.754;2022-11-02T04:01:04;14.45;;;2.75;;
3561;SDS011;1795;52.074;4.754;2022-11-02T04:03:35;15.10;;;3.33;;
3561;SDS011;1795;52.074;4.754;2022-11-02T04:06:06;18.17;;;3.40;;
3561;SDS011;1795;52.074;4.754;2022-11-02T04:08:35;14.30;;;3.40;;
3561;SDS011;1795;52.074;4.754;2022-11-02T04:11:05;14.07;;;2.50;;
3561;SDS011;1795;52.074;4.754;2022-11-02T04:13:51;14.82;;;2.92;;
3561;SDS011;1795;52.074;4.754;2022-11-02T04:16:39;17.10;;;2.88;;
3561;SDS011;1795;52.074;4.754;2022-11-02T04:19:07;16.27;;;2.50;;
3561;SDS011;1795;52.074;4.754;2022-11-02T04:21:52;15.55;;;2.85;;
3561;SDS011;1795;52.074;4.754;2022-11-02T04:24:38;16.05;;;3.00;;
3561;SDS011;1795;52.074;4.754;2022-11-02T04:27:24;16.88;;;2.97;;
3561;SDS011;1795;52.074;4.754;2022-11-02T04:29:52;15.68;;;2.90;;
3561;SDS011;1795;52.074;4.754;2022-11-02T04:32:21;15.77;;;3.10;;
3561;SDS011;1795;52.074;4.754;2022-11-02T04:35:04;16.40;;;3.20;;
3561;SDS011;1795;52.074;4.754;2022-11-02T04:37:36;14.52;;;2.80;;
3561;SDS011;1795;52.074;4.754;2022-11-02T04:40:25;15.90;;;2.55;;
3561;SDS011;1795;52.074;4.754;2022-11-02T04:43:03;12.40;;;3.13;;
3561;SDS011;1795;52.074;4.754;2022-11-02T04:45:31;12.95;;;2.53;;
3561;SDS011;1795;52.074;4.754;2022-11-02T04:48:00;14.57;;;3.00;;
3561;SDS011;1795;52.074;4.754;2022-11-02T04:50:29;12.73;;;2.30;;
3561;SDS011;1795;52.074;4.754;2022-11-02T04:52:58;7.45;;;2.60;;
3561;SDS011;1795;52.074;4.754;2022-11-02T04:55:27;10.50;;;2.75;;
3561;SDS011;1795;52.074;4.754;2022-11-02T04:57:55;12.83;;;2.53;;
3561;SDS011;1795;52.074;4.754;2022-11-02T05:00:23;12.85;;;3.20;;
3561;SDS011;1795;52.074;4.754;2022-11-02T05:02:51;13.45;;;2.80;;
3561;SDS011;1795;52.074;4.754;2022-11-02T05:05:20;17.98;;;3.28;;
3561;SDS011;1795;52.074;4.754;2022-11-02T05:07:48;9.30;;;2.60;;
3561;SDS011;1795;52.074;4.754;2022-11-02T05:10:17;16.60;;;2.80;;
3561;SDS011;1795;52.074;4.754;2022-11-02T05:12:45;15.70;;;3.00;;
3561;SDS011;1795;52.074;4.754;2022-11-02T05:15:13;8.25;;;2.13;;
3561;SDS011;1795;52.074;4.754;2022-11-02T05:17:41;8.60;;;2.20;;
3561;SDS011;1795;52.074;4.754;2022-11-02T05:20:09;12.77;;;2.42;;
3561;SDS011;1795;52.074;4.754;2022-11-02T05:22:41;13.57;;;2.40;;
3561;SDS011;1795;52.074;4.754;2022-11-02T05:25:09;9.45;;;2.20;;
3561;SDS011;1795;52.074;4.754;2022-11-02T05:27:37;19.38;;;3.58;;
3561;SDS011;1795;52.074;4.754;2022-11-02T05:30:06;12.48;;;2.97;;
3561;SDS011;1795;52.074;4.754;2022-11-02T05:32:34;13.00;;;2.30;;
3561;SDS011;1795;52.074;4.754;2022-11-02T05:35:02;10.05;;;1.92;;
3561;SDS011;1795;52.074;4.754;2022-11-02T05:37:31;12.23;;;2.65;;
3561;SDS011;1795;52.074;4.754;2022-11-02T05:40:00;8.75;;;1.80;;
3561;SDS011;1795;52.074;4.754;2022-11-02T05:42:28;9.13;;;1.80;;
3561;SDS011;1795;52.074;4.754;2022-11-02T05:44:56;8.02;;;1.80;;
3561;SDS011;1795;52.074;4.754;2022-11-02T05:47:24;9.10;;;1.85;;
3561;SDS011;1795;52.074;4.754;2022-11-02T05:49:52;7.37;;;1.67;;
3561;SDS011;1795;52.074;4.754;2022-11-02T05:52:20;7.93;;;2.20;;
3561;SDS011;1795;52.074;4.754;2022-11-02T05:54:48;8.50;;;2.20;;
3561;SDS011;1795;52.074;4.754;2022-11-02T05:57:17;6.88;;;1.70;;
3561;SDS011;1795;52.074;4.754;2022-11-02T05:59:45;11.10;;;2.20;;
3561;SDS011;1795;52.074;4.754;2022-11-02T06:02:14;4.72;;;1.50;;
3561;SDS011;1795;52.074;4.754;2022-11-02T06:04:44;7.03;;;1.50;;
3561;SDS011;1795;52.074;4.754;2022-11-02T06:07:12;7.60;;;1.70;;
3561;SDS011;1795;52.074;4.754;2022-11-02T06:09:40;6.75;;;2.00;;
3561;SDS011;1795;52.074;4.754;2022-11-02T06:12:08;6.18;;;1.73;;
3561;SDS011;1795;52.074;4.754;2022-11-02T06:14:37;7.43;;;1.67;;
3561;SDS011;1795;52.074;4.754;2022-11-02T06:17:05;5.60;;;1.60;;
3561;SDS011;1795;52.074;4.754;2022-11-02T06:19:33;7.65;;;1.60;;
3561;SDS011;1795;52.074;4.754;2022-11-02T06:22:01;7.40;;;1.70;;
3561;SDS011;1795;52.074;4.754;2022-11-02T06:24:29;10.57;;;2.08;;
3561;SDS011;1795;52.074;4.754;2022-11-02T06:26:57;7.30;;;1.95;;
3561;SDS011;1795;52.074;4.754;2022-11-02T06:29:25;7.45;;;2.05;;
3561;SDS011;1795;52.074;4.754;2022-11-02T06:31:54;8.13;;;2.40;;
3561;SDS011;1795;52.074;4.754;2022-11-02T06:34:22;8.38;;;1.92;;
3561;SDS011;1795;52.074;4.754;2022-11-02T06:36:50;5.72;;;2.00;;
3561;SDS011;1795;52.074;4.754;2022-11-02T06:39:19;10.10;;;1.65;;
3561;SDS011;1795;52.074;4.754;2022-11-02T06:41:46;9.70;;;2.00;;
3561;SDS011;1795;52.074;4.754;2022-11-02T06:44:14;7.30;;;1.40;;
3561;SDS011;1795;52.074;4.754;2022-11-02T06:46:42;6.55;;;1.80;;
3561;SDS011;1795;52.074;4.754;2022-11-02T06:49:11;7.57;;;2.13;;
3561;SDS011;1795;52.074;4.754;2022-11-02T06:51:39;11.60;;;2.13;;
3561;SDS011;1795;52.074;4.754;2022-11-02T06:54:07;7.40;;;1.27;;
3561;SDS011;1795;52.074;4.754;2022-11-02T06:56:35;11.02;;;1.80;;
3561;SDS011;1795;52.074;4.754;2022-11-02T06:59:03;7.78;;;1.80;;
3561;SDS011;1795;52.074;4.754;2022-11-02T07:01:31;9.93;;;2.07;;
3561;SDS011;1795;52.074;4.754;2022-11-02T07:04:00;7.97;;;1.58;;
3561;SDS011;1795;52.074;4.754;2022-11-02T07:06:30;8.93;;;1.63;;
3561;SDS011;1795;52.074;4.754;2022-11-02T07:08:58;10.25;;;1.98;;
3561;SDS011;1795;52.074;4.754;2022-11-02T07:11:26;5.18;;;1.85;;
3561;SDS011;1795;52.074;4.754;2022-11-02T07:13:54;6.00;;;1.65;;
3561;SDS011;1795;52.074;4.754;2022-11-02T07:16:22;5.50;;;1.80;;
3561;SDS011;1795;52.074;4.754;2022-11-02T07:18:50;10.97;;;1.70;;
3561;SDS011;1795;52.074;4.754;2022-11-02T07:21:18;10.77;;;1.80;;
3561;SDS011;1795;52.074;4.754;2022-11-02T07:23:52;6.50;;;1.60;;
3561;SDS011;1795;52.074;4.754;2022-11-02T07:26:20;6.13;;;1.33;;
3561;SDS011;1795;52.074;4.754;2022-11-02T07:28:49;8.63;;;1.83;;
3561;SDS011;1795;52.074;4.754;2022-11-02T07:31:24;7.97;;;2.00;;
3561;SDS011;1795;52.074;4.754;2022-11-02T07:33:52;9.23;;;1.63;;
3561;SDS011;1795;52.074;4.754;2022-11-02T07:36:20;11.63;;;2.07;;
3561;SDS011;1795;52.074;4.754;2022-11-02T07:38:48;6.40;;;1.73;;
3561;SDS011;1795;52.074;4.754;2022-11-02T07:41:17;11.73;;;2.00;;
3561;SDS011;1795;52.074;4.754;2022-11-02T07:43:45;6.25;;;1.70;;
3561;SDS011;1795;52.074;4.754;2022-11-02T07:46:13;6.07;;;1.50;;
3561;SDS011;1795;52.074;4.754;2022-11-02T07:48:41;11.63;;;2.38;;
3561;SDS011;1795;52.074;4.754;2022-11-02T07:51:09;6.85;;;1.55;;
3561;SDS011;1795;52.074;4.754;2022-11-02T07:53:38;7.53;;;1.70;;
3561;SDS011;1795;52.074;4.754;2022-11-02T07:56:06;10.27;;;1.80;;
3561;SDS011;1795;52.074;4.754;2022-11-02T07:58:35;9.63;;;1.80;;
3561;SDS011;1795;52.074;4.754;2022-11-02T08:01:03;5.78;;;1.30;;
3561;SDS011;1795;52.074;4.754;2022-11-02T08:03:32;7.70;;;1.70;;
3561;SDS011;1795;52.074;4.754;2022-11-02T08:06:00;10.02;;;2.08;;
3561;SDS011;1795;52.074;4.754;2022-11-02T08:08:29;5.00;;;1.70;;
3561;SDS011;1795;52.074;4.754;2022-11-02T08:11:01;9.23;;;2.00;;
3561;SDS011;1795;52.074;4.754;2022-11-02T08:13:32;7.18;;;1.40;;
3561;SDS011;1795;52.074;4.754;2022-11-02T08:16:02;9.00;;;1.98;;
3561;SDS011;1795;52.074;4.754;2022-11-02T08:18:31;8.73;;;1.85;;
3561;SDS011;1795;52.074;4.754;2022-11-02T08:20:59;10.73;;;1.70;;
3561;SDS011;1795;52.074;4.754;2022-11-02T08:23:27;7.60;;;1.50;;
3561;SDS011;1795;52.074;4.754;2022-11-02T08:25:57;6.85;;;1.65;;
3561;SDS011;1795;52.074;4.754;2022-11-02T08:28:26;4.75;;;1.80;;
3561;SDS011;1795;52.074;4.754;2022-11-02T08:30:56;8.15;;;1.80;;
3561;SDS011;1795;52.074;4.754;2022-11-02T08:33:26;9.82;;;2.20;;
3561;SDS011;1795;52.074;4.754;2022-11-02T08:35:54;4.50;;;2.30;;
3561;SDS011;1795;52.074;4.754;2022-11-02T08:38:28;11.35;;;2.22;;
3561;SDS011;1795;52.074;4.754;2022-11-02T08:40:56;11.18;;;1.77;;
3561;SDS011;1795;52.074;4.754;2022-11-02T08:43:24;8.13;;;1.90;;
3561;SDS011;1795;52.074;4.754;2022-11-02T08:45:52;9.02;;;2.65;;
3561;SDS011;1795;52.074;4.754;2022-11-02T08:48:43;9.50;;;2.10;;
3561;SDS011;1795;52.074;4.754;2022-11-02T08:51:11;12.57;;;1.85;;
3561;SDS011;1795;52.074;4.754;2022-11-02T08:53:39;12.70;;;2.00;;
3561;SDS011;1795;52.074;4.754;2022-11-02T08:56:12;8.70;;;1.73;;
3561;SDS011;1795;52.074;4.754;2022-11-02T08:58:40;11.43;;;2.20;;
3561;SDS011;1795;52.074;4.754;2022-11-02T09:01:08;8.65;;;1.67;;
3561;SDS011;1795;52.074;4.754;2022-11-02T09:03:36;6.47;;;1.40;;
3561;SDS011;1795;52.074;4.754;2022-11-02T09:06:05;8.13;;;1.90;;
3561;SDS011;1795;52.074;4.754;2022-11-02T09:08:33;6.25;;;1.70;;
3561;SDS011;1795;52.074;4.754;2022-11-02T09:11:02;8.73;;;1.48;;
3561;SDS011;1795;52.074;4.754;2022-11-02T09:13:30;7.75;;;1.60;;
3561;SDS011;1795;52.074;4.754;2022-11-02T09:15:58;5.65;;;1.73;;
3561;SDS011;1795;52.074;4.754;2022-11-02T09:18:27;10.40;;;2.22;;
3561;SDS011;1795;52.074;4.754;2022-11-02T09:20:56;6.57;;;1.60;;
3561;SDS011;1795;52.074;4.754;2022-11-02T09:23:29;7.45;;;1.50;;
3561;SDS011;1795;52.074;4.754;2022-11-02T09:25:58;8.68;;;1.98;;
3561;SDS011;1795;52.074;4.754;2022-11-02T09:28:26;5.80;;;1.80;;
3561;SDS011;1795;52.074;4.754;2022-11-02T09:30:54;6.47;;;1.60;;
3561;SDS011;1795;52.074;4.754;2022-11-02T09:33:22;7.07;;;1.67;;
3561;SDS011;1795;52.074;4.754;2022-11-02T09:35:50;8.32;;;1.85;;
3561;SDS011;1795;52.074;4.754;2022-11-02T09:38:18;5.32;;;1.63;;
3561;SDS011;1795;52.074;4.754;2022-11-02T09:40:49;7.70;;;1.53;;
3561;SDS011;1795;52.074;4.754;2022-11-02T09:43:29;13.15;;;2.03;;
3561;SDS011;1795;52.074;4.754;2022-11-02T09:46:05;8.25;;;1.70;;
3561;SDS011;1795;52.074;4.754;2022-11-02T09:48:37;5.13;;;1.50;;
3561;SDS011;1795;52.074;4.754;2022-11-02T09:51:09;9.27;;;2.00;;
3561;SDS011;1795;52.074;4.754;2022-11-02T09:53:42;4.65;;;1.42;;
3561;SDS011;1795;52.074;4.754;2022-11-02T09:56:20;8.13;;;1.90;;
3561;SDS011;1795;52.074;4.754;2022-11-02T09:58:50;9.35;;;1.88;;
3561;SDS011;1795;52.074;4.754;2022-11-02T10:01:28;11.02;;;2.22;;
3561;SDS011;1795;52.074;4.754;2022-11-02T10:04:19;7.30;;;1.85;;
3561;SDS011;1795;52.074;4.754;2022-11-02T10:07:12;5.82;;;1.65;;
3561;SDS011;1795;52.074;4.754;2022-11-02T10:09:52;8.27;;;2.25;;
3561;SDS011;1795;52.074;4.754;2022-11-02T10:12:25;7.00;;;1.67;;
3561;SDS011;1795;52.074;4.754;2022-11-02T10:15:01;8.70;;;2.00;;
3561;SDS011;1795;52.074;4.754;2022-11-02T10:17:33;9.27;;;1.85;;
3561;SDS011;1795;52.074;4.754;2022-11-02T10:20:06;12.88;;;2.00;;
3561;SDS011;1795;52.074;4.754;2022-11-02T10:22:43;10.80;;;2.70;;
3561;SDS011;1795;52.074;4.754;2022-11-02T10:25:14;12.02;;;1.92;;
3561;SDS011;1795;52.074;4.754;2022-11-02T10:27:44;7.35;;;2.40;;
3561;SDS011;1795;52.074;4.754;2022-11-02T10:30:18;10.05;;;2.25;;
3561;SDS011;1795;52.074;4.754;2022-11-02T10:32:47;5.40;;;1.90;;
3561;SDS011;1795;52.074;4.754;2022-11-02T10:35:19;9.75;;;2.03;;
3561;SDS011;1795;52.074;4.754;2022-11-02T10:38:16;8.37;;;1.50;;
3561;SDS011;1795;52.074;4.754;2022-11-02T10:41:04;9.05;;;1.90;;
3561;SDS011;1795;52.074;4.754;2022-11-02T10:43:46;9.48;;;1.98;;
3561;SDS011;1795;52.074;4.754;2022-11-02T10:46:36;9.63;;;2.33;;
3561;SDS011;1795;52.074;4.754;2022-11-02T10:49:12;8.77;;;2.00;;
3561;SDS011;1795;52.074;4.754;2022-11-02T10:51:48;7.45;;;2.00;;
3561;SDS011;1795;52.074;4.754;2022-11-02T10:54:16;8.75;;;2.08;;
3561;SDS011;1795;52.074;4.754;2022-11-02T10:56:54;8.68;;;2.17;;
3561;SDS011;1795;52.074;4.754;2022-11-02T10:59:24;10.88;;;2.33;;
3561;SDS011;1795;52.074;4.754;2022-11-02T11:02:02;10.95;;;1.95;;
3561;SDS011;1795;52.074;4.754;2022-11-02T11:04:36;15.77;;;2.30;;
3561;SDS011;1795;52.074;4.754;2022-11-02T11:07:04;7.85;;;2.13;;
3561;SDS011;1795;52.074;4.754;2022-11-02T11:09:36;11.38;;;2.33;;
3561;SDS011;1795;52.074;4.754;2022-11-02T11:12:13;13.15;;;2.40;;
3561;SDS011;1795;52.074;4.754;2022-11-02T11:14:48;11.47;;;2.10;;
3561;SDS011;1795;52.074;4.754;2022-11-02T11:17:39;8.57;;;2.45;;
3561;SDS011;1795;52.074;4.754;2022-11-02T11:20:31;8.43;;;2.90;;
3561;SDS011;1795;52.074;4.754;2022-11-02T11:23:06;10.90;;;2.30;;
3561;SDS011;1795;52.074;4.754;2022-11-02T11:25:55;8.13;;;2.00;;
3561;SDS011;1795;52.074;4.754;2022-11-02T11:28:26;11.70;;;2.45;;
3561;SDS011;1795;52.074;4.754;2022-11-02T11:33:47;14.10;;;2.95;;
3561;SDS011;1795;52.074;4.754;2022-11-02T11:36:19;12.07;;;2.00;;
3561;SDS011;1795;52.074;4.754;2022-11-02T11:38:51;12.83;;;2.50;;
3561;SDS011;1795;52.074;4.754;2022-11-02T11:41:23;8.68;;;2.00;;
3561;SDS011;1795;52.074;4.754;2022-11-02T11:43:51;9.20;;;2.40;;
3561;SDS011;1795;52.074;4.754;2022-11-02T11:46:21;9.38;;;2.58;;
3561;SDS011;1795;52.074;4.754;2022-11-02T11:48:49;8.85;;;2.20;;
3561;SDS011;1795;52.074;4.754;2022-11-02T11:51:29;9.05;;;2.50;;
3561;SDS011;1795;52.074;4.754;2022-11-02T11:54:04;8.80;;;2.30;;
3561;SDS011;1795;52.074;4.754;2022-11-02T11:56:41;8.75;;;2.28;;
3561;SDS011;1795;52.074;4.754;2022-11-02T11:59:16;10.48;;;2.25;;
3561;SDS011;1795;52.074;4.754;2022-11-02T12:01:48;8.65;;;2.50;;
3561;SDS011;1795;52.074;4.754;2022-11-02T12:04:29;10.65;;;2.17;;
3561;SDS011;1795;52.074;4.754;2022-11-02T12:07:10;9.20;;;2.10;;
3561;SDS011;1795;52.074;4.754;2022-11-02T12:09:48;6.22;;;2.30;;
3561;SDS011;1795;52.074;4.754;2022-11-02T12:12:28;8.07;;;2.47;;
3561;SDS011;1795;52.074;4.754;2022-11-02T12:15:09;8.68;;;2.20;;
3561;SDS011;1795;52.074;4.754;2022-11-02T12:17:52;9.90;;;1.77;;
3561;SDS011;1795;52.074;4.754;2022-11-02T12:20:34;10.13;;;2.17;;
3561;SDS011;1795;52.074;4.754;2022-11-02T12:23:16;6.68;;;2.17;;
3561;SDS011;1795;52.074;4.754;2022-11-02T12:26:02;10.35;;;2.08;;
3561;SDS011;1795;52.074;4.754;2022-11-02T12:28:42;8.45;;;2.30;;
3561;SDS011;1795;52.074;4.754;2022-11-02T12:31:19;10.52;;;2.60;;
3561;SDS011;1795;52.074;4.754;2022-11-02T12:34:02;7.65;;;2.00;;
3561;SDS011;1795;52.074;4.754;2022-11-02T12:36:46;12.23;;;2.50;;
3561;SDS011;1795;52.074;4.754;2022-11-02T12:39:52;8.05;;;2.22;;
3561;SDS011;1795;52.074;4.754;2022-11-02T12:42:29;7.30;;;1.80;;
3561;SDS011;1795;52.074;4.754;2022-11-02T12:45:13;11.30;;;2.50;;
3561;SDS011;1795;52.074;4.754;2022-11-02T12:47:52;12.57;;;2.17;;
3561;SDS011;1795;52.074;4.754;2022-11-02T12:50:26;7.40;;;2.00;;
3561;SDS011;1795;52.074;4.754;2022-11-02T12:53:06;11.65;;;2.80;;
3561;SDS011;1795;52.074;4.754;2022-11-02T12:55:49;11.10;;;2.97;;
3561;SDS011;1795;52.074;4.754;2022-11-02T12:58:20;11.32;;;2.58;;
3561;SDS011;1795;52.074;4.754;2022-11-02T13:00:53;8.15;;;2.38;;
3561;SDS011;1795;52.074;4.754;2022-11-02T13:03:27;11.38;;;2.50;;
3561;SDS011;1795;52.074;4.754;2022-11-02T13:06:04;11.95;;;2.78;;
3561;SDS011;1795;52.074;4.754;2022-11-02T13:08:38;14.23;;;3.20;;
3561;SDS011;1795;52.074;4.754;2022-11-02T13:11:11;10.85;;;2.65;;
3561;SDS011;1795;52.074;4.754;2022-11-02T13:13:44;9.73;;;2.20;;
3561;SDS011;1795;52.074;4.754;2022-11-02T13:16:15;12.70;;;2.95;;
3561;SDS011;1795;52.074;4.754;2022-11-02T13:18:47;11.80;;;2.65;;
3561;SDS011;1795;52.074;4.754;2022-11-02T13:21:21;7.82;;;2.15;;
3561;SDS011;1795;52.074;4.754;2022-11-02T13:23:56;10.02;;;2.00;;
3561;SDS011;1795;52.074;4.754;2022-11-02T13:26:27;6.90;;;2.42;;
3561;SDS011;1795;52.074;4.754;2022-11-02T13:28:59;8.13;;;2.20;;
3561;SDS011;1795;52.074;4.754;2022-11-02T13:31:31;13.23;;;2.70;;
3561;SDS011;1795;52.074;4.754;2022-11-02T13:34:06;5.20;;;1.80;;
3561;SDS011;1795;52.074;4.754;2022-11-02T13:36:40;9.70;;;2.60;;
3561;SDS011;1795;52.074;4.754;2022-11-02T13:39:11;8.85;;;2.00;;
3561;SDS011;1795;52.074;4.754;2022-11-02T13:41:48;8.35;;;2.38;;
3561;SDS011;1795;52.074;4.754;2022-11-02T13:47:53;11.50;;;2.30;;
3561;SDS011;1795;52.074;4.754;2022-11-02T13:50:43;10.93;;;2.40;;
3561;SDS011;1795;52.074;4.754;2022-11-02T13:53:18;13.87;;;2.73;;
3561;SDS011;1795;52.074;4.754;2022-11-02T13:55:50;11.93;;;2.30;;
3561;SDS011;1795;52.074;4.754;2022-11-02T13:58:22;11.90;;;3.15;;
3561;SDS011;1795;52.074;4.754;2022-11-02T14:00:52;13.13;;;3.13;;
3561;SDS011;1795;52.074;4.754;2022-11-02T14:03:25;13.87;;;3.00;;
3561;SDS011;1795;52.074;4.754;2022-11-02T14:05:58;11.82;;;2.80;;
3561;SDS011;1795;52.074;4.754;2022-11-02T14:08:32;9.05;;;2.10;;
3561;SDS011;1795;52.074;4.754;2022-11-02T14:11:04;12.23;;;3.38;;
3561;SDS011;1795;52.074;4.754;2022-11-02T14:14:04;11.63;;;3.08;;
3561;SDS011;1795;52.074;4.754;2022-11-02T14:16:44;14.13;;;3.60;;
3561;SDS011;1795;52.074;4.754;2022-11-02T14:19:24;14.05;;;4.03;;
3561;SDS011;1795;52.074;4.754;2022-11-02T14:22:08;8.30;;;2.72;;
3561;SDS011;1795;52.074;4.754;2022-11-02T14:24:52;17.25;;;3.40;;
3561;SDS011;1795;52.074;4.754;2022-11-02T14:27:28;19.00;;;3.25;;
3561;SDS011;1795;52.074;4.754;2022-11-02T14:29:57;16.30;;;3.20;;
3561;SDS011;1795;52.074;4.754;2022-11-02T14:38:13;12.07;;;3.25;;
3561;SDS011;1795;52.074;4.754;2022-11-02T14:41:05;16.60;;;3.25;;
3561;SDS011;1795;52.074;4.754;2022-11-02T14:46:31;14.32;;;3.10;;
3561;SDS011;1795;52.074;4.754;2022-11-02T14:49:14;15.05;;;3.03;;
3561;SDS011;1795;52.074;4.754;2022-11-02T14:51:45;9.68;;;2.53;;
3561;SDS011;1795;52.074;4.754;2022-11-02T14:54:29;13.18;;;3.35;;
3561;SDS011;1795;52.074;4.754;2022-11-02T14:57:02;9.93;;;2.50;;
3561;SDS011;1795;52.074;4.754;2022-11-02T14:59:35;10.30;;;3.05;;
3561;SDS011;1795;52.074;4.754;2022-11-02T15:02:06;11.25;;;2.97;;
3561;SDS011;1795;52.074;4.754;2022-11-02T15:04:45;9.80;;;2.35;;
3561;SDS011;1795;52.074;4.754;2022-11-02T15:07:17;12.32;;;2.80;;
3561;SDS011;1795;52.074;4.754;2022-11-02T15:09:51;11.18;;;3.42;;
3561;SDS011;1795;52.074;4.754;2022-11-02T15:12:29;9.98;;;2.30;;
3561;SDS011;1795;52.074;4.754;2022-11-02T15:23:49;16.05;;;2.83;;
3561;SDS011;1795;52.074;4.754;2022-11-02T15:26:51;9.67;;;2.40;;
3561;SDS011;1795;52.074;4.754;2022-11-02T15:29:30;10.10;;;2.60;;
3561;SDS011;1795;52.074;4.754;2022-11-02T15:32:03;12.30;;;2.80;;
3561;SDS011;1795;52.074;4.754;2022-11-02T15:34:35;12.53;;;2.70;;
3561;SDS011;1795;52.074;4.754;2022-11-02T15:37:07;9.00;;;3.28;;
3561;SDS011;1795;52.074;4.754;2022-11-02T15:39:39;7.10;;;2.35;;
3561;SDS011;1795;52.074;4.754;2022-11-02T15:42:14;11.27;;;2.28;;
3561;SDS011;1795;52.074;4.754;2022-11-02T15:44:59;11.63;;;2.38;;
3561;SDS011;1795;52.074;4.754;2022-11-02T15:47:58;8.88;;;2.13;;
3561;SDS011;1795;52.074;4.754;2022-11-02T15:50:34;8.68;;;2.15;;
3561;SDS011;1795;52.074;4.754;2022-11-02T15:56:14;10.15;;;2.38;;
3561;SDS011;1795;52.074;4.754;2022-11-02T15:59:01;12.63;;;2.50;;
3561;SDS011;1795;52.074;4.754;2022-11-02T16:01:42;15.55;;;3.40;;
3561;SDS011;1795;52.074;4.754;2022-11-02T16:04:19;8.57;;;2.23;;
3561;SDS011;1795;52.074;4.754;2022-11-02T16:06:48;9.85;;;2.80;;
3561;SDS011;1795;52.074;4.754;2022-11-02T16:09:29;8.60;;;2.10;;
3561;SDS011;1795;52.074;4.754;2022-11-02T16:12:02;7.93;;;2.75;;
3561;SDS011;1795;52.074;4.754;2022-11-02T16:14:36;10.98;;;2.80;;
3561;SDS011;1795;52.074;4.754;2022-11-02T16:17:16;10.20;;;2.70;;